createdAt,value
2018-02-18T00:01:41.772Z,64.77
2018-02-18T00:04:10.453Z,69.43
2018-02-18T00:06:38.808Z,80.17
2018-02-18T00:09:07.144Z,71.40
2018-02-18T00:11:35.564Z,77.53
2018-02-18T00:14:04.701Z,84.20
2018-02-18T00:16:33.619Z,72.43
2018-02-18T00:19:01.963Z,75.50
2018-02-18T00:21:30.339Z,73.97
2018-02-18T00:23:59.006Z,73.70
2018-02-18T00:26:27.432Z,76.37
2018-02-18T00:28:55.781Z,65.40
2018-02-18T00:31:24.157Z,73.13
2018-02-18T00:33:52.518Z,74.50
2018-02-18T00:36:20.916Z,66.70
2018-02-18T00:38:49.238Z,73.03
2018-02-18T00:41:17.818Z,75.50
2018-02-18T00:43:46.237Z,72.80
2018-02-18T00:46:14.852Z,82.90
2018-02-18T00:48:43.202Z,70.77
2018-02-18T00:51:11.591Z,77.53
2018-02-18T00:53:40.377Z,81.27
2018-02-18T00:56:08.834Z,76.67
2018-02-18T00:58:37.168Z,73.77
2018-02-18T01:01:05.806Z,92.73
2018-02-18T01:03:34.163Z,77.40
2018-02-18T01:06:02.782Z,88.67
2018-02-18T01:08:31.110Z,86.27
2018-02-18T01:10:59.798Z,79.37
2018-02-18T01:13:28.156Z,72.50
2018-02-18T01:15:56.556Z,86.10
2018-02-18T01:18:25.011Z,85.80
2018-02-18T01:20:53.474Z,83.73
2018-02-18T01:23:21.939Z,79.27
2018-02-18T01:25:50.328Z,96.33
2018-02-18T01:28:18.683Z,82.63
2018-02-18T01:30:47.034Z,73.80
2018-02-18T01:33:15.388Z,74.57
2018-02-18T01:35:44.081Z,87.90
2018-02-18T01:38:13.185Z,70.00
2018-02-18T01:40:41.757Z,106.60
2018-02-18T01:43:10.602Z,86.90
2018-02-18T01:45:38.966Z,87.13
2018-02-18T01:48:07.344Z,74.37
2018-02-18T01:50:37.595Z,98.23
2018-02-18T01:55:40.670Z,90.40
2018-02-18T01:58:09.006Z,84.20
2018-02-18T02:00:37.353Z,94.67
2018-02-18T02:03:05.864Z,88.83
2018-02-18T02:05:34.309Z,91.70
2018-02-18T02:08:02.673Z,73.77
2018-02-18T02:10:31.055Z,75.27
2018-02-18T02:12:59.469Z,92.40
2018-02-18T02:15:27.792Z,80.63
2018-02-18T02:17:56.148Z,90.60
2018-02-18T02:20:24.496Z,92.63
2018-02-18T02:22:52.924Z,99.90
2018-02-18T02:25:21.659Z,78.87
2018-02-18T02:27:50.354Z,102.50
2018-02-18T02:30:18.701Z,91.47
2018-02-18T02:32:47.065Z,81.73
2018-02-18T02:35:15.395Z,91.27
2018-02-18T02:37:43.790Z,80.13
2018-02-18T02:40:12.142Z,100.17
2018-02-18T02:42:40.529Z,108.80
2018-02-18T02:45:08.847Z,95.33
2018-02-18T02:47:37.430Z,91.07
2018-02-18T02:50:05.842Z,93.33
2018-02-18T02:52:34.198Z,95.67
2018-02-18T02:55:02.640Z,99.00
2018-02-18T02:57:30.992Z,90.57
2018-02-18T02:59:59.438Z,92.67
2018-02-18T03:02:27.814Z,87.60
2018-02-18T03:04:56.245Z,97.50
2018-02-18T03:07:24.591Z,109.73
2018-02-18T03:09:52.941Z,84.17
2018-02-18T03:12:21.306Z,88.50
2018-02-18T03:14:49.625Z,91.37
2018-02-18T03:17:17.973Z,101.87
2018-02-18T03:19:46.341Z,104.90
2018-02-18T03:22:14.672Z,83.47
2018-02-18T03:24:44.257Z,92.77
2018-02-18T03:27:12.627Z,95.30
2018-02-18T03:29:41.017Z,106.67
2018-02-18T03:32:09.376Z,107.40
2018-02-18T03:34:37.784Z,98.43
2018-02-18T03:37:06.129Z,96.73
2018-02-18T03:39:34.482Z,95.93
2018-02-18T03:42:02.870Z,122.93
2018-02-18T03:44:31.228Z,95.10
2018-02-18T03:46:59.566Z,96.13
2018-02-18T03:49:27.944Z,105.50
2018-02-18T03:51:56.293Z,91.23
2018-02-18T03:54:24.721Z,99.20
2018-02-18T03:56:53.081Z,104.17
2018-02-18T03:59:21.425Z,105.10
2018-02-18T04:01:49.812Z,109.90
2018-02-18T04:04:18.180Z,113.80
2018-02-18T04:06:46.565Z,93.20
2018-02-18T04:09:14.917Z,111.53
2018-02-18T04:11:43.302Z,129.73
2018-02-18T04:14:11.655Z,96.83
2018-02-18T04:16:39.991Z,89.53
2018-02-18T04:19:08.341Z,112.10
2018-02-18T04:21:36.677Z,102.87
2018-02-18T04:24:05.050Z,108.87
2018-02-18T04:26:34.361Z,101.47
2018-02-18T04:29:02.781Z,106.93
2018-02-18T04:31:31.172Z,116.27
2018-02-18T04:33:59.563Z,110.80
2018-02-18T04:36:27.949Z,92.77
2018-02-18T04:38:56.302Z,113.27
2018-02-18T04:41:24.691Z,109.23
2018-02-18T04:43:53.044Z,100.03
2018-02-18T04:46:21.424Z,115.50
2018-02-18T04:48:50.044Z,122.50
2018-02-18T04:51:18.402Z,104.30
2018-02-18T04:56:21.436Z,126.33
2018-02-18T04:58:49.791Z,91.97
2018-02-18T05:01:18.208Z,105.17
2018-02-18T05:03:46.556Z,114.30
2018-02-18T05:06:15.936Z,105.27
2018-02-18T05:08:44.304Z,104.40
2018-02-18T05:11:12.789Z,114.70
2018-02-18T05:13:41.191Z,108.73
2018-02-18T05:16:09.539Z,118.03
2018-02-18T05:18:37.875Z,105.80
2018-02-18T05:21:06.232Z,88.80
2018-02-18T05:23:34.579Z,127.43
2018-02-18T05:26:02.951Z,100.33
2018-02-18T05:28:31.307Z,129.83
2018-02-18T05:30:59.654Z,112.97
2018-02-18T05:33:28.084Z,104.43
2018-02-18T05:35:56.406Z,102.70
2018-02-18T05:38:24.774Z,108.40
2018-02-18T05:40:53.205Z,115.67
2018-02-18T05:43:21.626Z,113.27
2018-02-18T05:45:49.957Z,113.40
2018-02-18T05:48:18.356Z,112.70
2018-02-18T05:50:46.690Z,120.07
2018-02-18T05:53:15.912Z,113.23
2018-02-18T05:55:44.291Z,107.47
2018-02-18T05:58:12.621Z,129.27
2018-02-18T06:00:41.092Z,125.70
2018-02-18T06:03:09.424Z,118.63
2018-02-18T06:05:37.768Z,118.53
2018-02-18T06:08:06.101Z,130.70
2018-02-18T06:10:34.460Z,97.50
2018-02-18T06:13:02.821Z,111.63
2018-02-18T06:15:31.163Z,130.53
2018-02-18T06:17:59.550Z,104.60
2018-02-18T06:20:27.899Z,109.13
2018-02-18T06:22:56.242Z,114.03
2018-02-18T06:25:24.621Z,116.83
2018-02-18T06:27:52.984Z,111.50
2018-02-18T06:30:21.330Z,109.80
2018-02-18T06:32:49.711Z,119.13
2018-02-18T06:35:18.098Z,120.03
2018-02-18T06:37:46.479Z,128.50
2018-02-18T06:40:14.856Z,102.17
2018-02-18T06:42:43.304Z,105.80
2018-02-18T06:45:11.742Z,124.50
2018-02-18T06:47:40.125Z,123.90
2018-02-18T06:50:11.055Z,114.87
2018-02-18T06:52:39.420Z,117.20
2018-02-18T06:55:07.742Z,108.07
2018-02-18T06:57:36.156Z,111.83
2018-02-18T07:00:04.515Z,115.27
2018-02-18T07:02:32.944Z,106.73
2018-02-18T07:05:01.295Z,111.03
2018-02-18T07:07:29.636Z,112.53
2018-02-18T07:09:58.052Z,121.67
2018-02-18T07:12:26.386Z,118.07
2018-02-18T07:14:54.772Z,112.50
2018-02-18T07:17:23.169Z,96.07
2018-02-18T07:19:51.548Z,119.53
2018-02-18T07:22:19.900Z,129.37
2018-02-18T07:24:48.262Z,110.80
2018-02-18T07:27:16.613Z,103.50
2018-02-18T07:29:45.156Z,105.83
2018-02-18T07:32:13.493Z,98.23
2018-02-18T07:34:41.881Z,108.50
2018-02-18T07:37:11.036Z,96.63
2018-02-18T07:39:39.411Z,97.63
2018-02-18T07:42:07.966Z,111.73
2018-02-18T07:44:36.402Z,98.73
2018-02-18T07:47:04.724Z,92.17
2018-02-18T07:49:33.103Z,89.73
2018-02-18T07:52:01.455Z,95.20
2018-02-18T07:54:29.881Z,91.50
2018-02-18T07:56:58.209Z,85.40
2018-02-18T07:59:26.556Z,94.03
2018-02-18T08:01:54.921Z,115.93
2018-02-18T08:04:23.260Z,96.37
2018-02-18T08:06:51.657Z,119.90
2018-02-18T08:09:20.004Z,105.47
2018-02-18T08:11:48.347Z,87.67
2018-02-18T08:14:16.689Z,105.90
2018-02-18T08:16:45.043Z,98.10
2018-02-18T08:19:13.436Z,102.43
2018-02-18T08:21:41.791Z,88.30
2018-02-18T08:24:10.146Z,91.73
2018-02-18T08:26:38.479Z,102.40
2018-02-18T08:29:06.889Z,101.20
2018-02-18T08:31:35.219Z,83.60
2018-02-18T08:34:03.545Z,95.80
2018-02-18T08:36:32.175Z,111.97
2018-02-18T08:39:00.597Z,94.43
2018-02-18T08:41:29.197Z,90.20
2018-02-18T08:43:57.664Z,88.53
2018-02-18T08:46:26.415Z,89.73
2018-02-18T08:48:55.101Z,91.90
2018-02-18T08:51:23.421Z,86.03
2018-02-18T08:53:51.936Z,79.10
2018-02-18T08:56:20.423Z,71.77
2018-02-18T08:58:48.765Z,92.63
2018-02-18T09:01:17.085Z,62.47
2018-02-18T09:03:45.412Z,67.57
2018-02-18T09:06:13.756Z,93.93
2018-02-18T09:08:42.168Z,95.37
2018-02-18T09:11:10.880Z,99.07
2018-02-18T09:13:39.180Z,95.43
2018-02-18T09:16:07.514Z,99.80
2018-02-18T09:18:35.852Z,95.93
2018-02-18T09:21:04.188Z,108.73
2018-02-18T09:23:32.535Z,109.23
2018-02-18T09:26:01.133Z,105.70
2018-02-18T09:28:29.479Z,103.50
2018-02-18T09:31:01.714Z,104.97
2018-02-18T09:33:30.713Z,101.33
2018-02-18T09:35:59.022Z,110.70
2018-02-18T09:38:27.373Z,95.17
2018-02-18T09:40:55.690Z,105.50
2018-02-18T09:43:24.020Z,117.27
2018-02-18T09:45:52.368Z,95.23
2018-02-18T09:48:26.685Z,91.93
2018-02-18T09:50:55.027Z,94.57
2018-02-18T09:53:23.366Z,84.83
2018-02-18T09:55:51.742Z,90.03
2018-02-18T09:58:20.084Z,111.43
2018-02-18T10:00:48.413Z,133.43
2018-02-18T10:03:16.799Z,102.70
2018-02-18T10:05:45.211Z,106.87
2018-02-18T10:08:13.621Z,134.37
2018-02-18T10:10:42.930Z,133.40
2018-02-18T10:13:11.286Z,99.87
2018-02-18T10:15:39.733Z,115.17
2018-02-18T10:18:08.092Z,120.73
2018-02-18T10:20:36.454Z,84.37
2018-02-18T10:23:04.814Z,114.27
2018-02-18T10:25:33.158Z,84.93
2018-02-18T10:28:01.542Z,83.50
2018-02-18T10:30:29.888Z,94.60
2018-02-18T10:32:58.242Z,113.33
2018-02-18T10:35:26.573Z,111.23
2018-02-18T10:37:54.933Z,128.90
2018-02-18T10:40:23.293Z,118.60
2018-02-18T10:42:51.953Z,123.30
2018-02-18T10:45:20.377Z,128.73
2018-02-18T10:47:48.760Z,135.87
2018-02-18T10:50:17.104Z,111.80
2018-02-18T10:52:45.488Z,116.47
2018-02-18T10:55:13.884Z,112.47
2018-02-18T10:57:42.344Z,125.13
2018-02-18T11:00:11.497Z,103.03
2018-02-18T11:02:40.774Z,135.87
2018-02-18T11:05:09.188Z,137.43
2018-02-18T11:07:37.903Z,120.93
2018-02-18T11:10:06.222Z,104.83
2018-02-18T11:12:34.606Z,98.33
2018-02-18T11:15:02.976Z,115.70
2018-02-18T11:17:31.305Z,121.93
2018-02-18T11:19:59.645Z,129.90
2018-02-18T11:22:28.003Z,120.30
2018-02-18T11:24:56.363Z,114.77
2018-02-18T11:27:24.684Z,117.33
2018-02-18T11:29:54.860Z,124.83
2018-02-18T11:32:23.176Z,124.00
2018-02-18T11:34:51.533Z,107.63
2018-02-18T11:37:19.941Z,103.93
2018-02-18T11:39:48.539Z,109.33
2018-02-18T11:42:16.955Z,117.07
2018-02-18T11:44:45.301Z,100.23
2018-02-18T11:47:13.634Z,98.97
2018-02-18T11:49:42.226Z,110.93
2018-02-18T11:52:10.596Z,106.87
2018-02-18T11:54:38.990Z,77.67
2018-02-18T11:57:09.181Z,100.17
2018-02-18T11:59:37.700Z,97.57
2018-02-18T12:02:06.157Z,93.40
2018-02-18T12:04:34.579Z,95.73
2018-02-18T12:07:02.913Z,98.13
2018-02-18T12:09:31.345Z,106.17
2018-02-18T12:14:34.195Z,97.13
2018-02-18T12:17:02.541Z,96.13
2018-02-18T12:19:30.866Z,91.47
2018-02-18T12:21:59.818Z,99.70
2018-02-18T12:24:28.224Z,98.73
2018-02-18T12:26:56.585Z,106.63
2018-02-18T12:29:25.039Z,94.90
2018-02-18T12:31:53.364Z,90.87
2018-02-18T12:34:21.733Z,89.23
2018-02-18T12:36:50.059Z,86.57
2018-02-18T12:39:18.919Z,74.47
2018-02-18T12:41:47.536Z,86.63
2018-02-18T12:44:15.943Z,82.20
2018-02-18T12:46:44.418Z,60.83
2018-02-18T12:49:12.765Z,72.53
2018-02-18T12:51:41.142Z,68.03
2018-02-18T12:54:09.496Z,85.97
2018-02-18T12:56:41.945Z,85.43
2018-02-18T12:59:10.375Z,75.50
2018-02-18T13:01:39.650Z,68.27
2018-02-18T13:04:07.967Z,76.70
2018-02-18T13:06:36.396Z,62.00
2018-02-18T13:09:05.204Z,71.50
2018-02-18T13:11:33.991Z,83.57
2018-02-18T13:14:02.457Z,62.97
2018-02-18T13:16:30.891Z,70.13
2018-02-18T13:18:59.258Z,67.93
2018-02-18T13:21:27.588Z,66.67
2018-02-18T13:24:00.942Z,75.43
2018-02-18T13:26:29.303Z,61.17
2018-02-18T13:28:58.042Z,69.70
2018-02-18T13:31:26.377Z,72.10
2018-02-18T13:33:54.740Z,69.33
2018-02-18T13:36:23.116Z,65.97
2018-02-18T13:38:51.729Z,75.57
2018-02-18T13:41:20.098Z,76.67
2018-02-18T13:43:48.485Z,67.87
2018-02-18T13:46:16.843Z,64.43
2018-02-18T13:48:45.925Z,68.73
2018-02-18T13:51:14.272Z,62.03
2018-02-18T13:53:42.770Z,58.43
2018-02-18T13:56:11.109Z,71.67
2018-02-18T13:58:39.436Z,64.60
2018-02-18T14:01:08.474Z,60.33
2018-02-18T14:03:38.631Z,56.37
2018-02-18T14:06:07.035Z,62.03
2018-02-18T14:08:35.503Z,56.73
2018-02-18T14:11:03.932Z,54.63
2018-02-18T14:13:32.273Z,58.90
2018-02-18T14:16:01.040Z,50.77
2018-02-18T14:18:30.899Z,51.97
2018-02-18T14:20:59.365Z,68.63
2018-02-18T14:26:00.123Z,57.20
2018-02-18T14:28:28.446Z,56.50
2018-02-18T14:30:56.950Z,50.03
2018-02-18T14:33:25.274Z,53.40
2018-02-18T14:35:53.658Z,54.37
2018-02-18T14:38:22.202Z,45.27
2018-02-18T14:40:50.640Z,58.97
2018-02-18T14:43:30.686Z,52.67
2018-02-18T14:46:11.547Z,48.60
2018-02-18T14:52:01.492Z,44.73
2018-02-18T14:57:42.292Z,43.87
2018-02-18T15:00:10.658Z,34.50
2018-02-18T15:02:39.078Z,41.60
2018-02-18T15:05:07.436Z,34.47
2018-02-18T15:07:35.859Z,39.30
2018-02-18T15:10:04.484Z,33.13
2018-02-18T15:12:33.033Z,31.43
2018-02-18T15:15:01.564Z,30.27
2018-02-18T15:17:30.510Z,31.87
2018-02-18T15:19:58.881Z,28.27
2018-02-18T15:22:27.511Z,34.63
2018-02-18T15:24:55.858Z,28.60
2018-02-18T15:27:25.048Z,37.50
2018-02-18T15:29:53.383Z,32.60
2018-02-18T15:32:21.855Z,30.30
2018-02-18T15:34:50.163Z,33.00
2018-02-18T15:37:18.666Z,33.20
2018-02-18T15:39:47.681Z,28.80
2018-02-18T15:44:48.577Z,20.10
2018-02-18T15:47:19.348Z,28.00
2018-02-18T15:49:48.121Z,19.67
2018-02-18T15:52:17.464Z,18.73
2018-02-18T15:54:45.843Z,29.20
2018-02-18T15:57:14.345Z,33.27
2018-02-18T15:59:42.724Z,29.57
2018-02-18T16:02:11.049Z,11.77
2018-02-18T16:04:39.453Z,21.43
2018-02-18T16:07:07.934Z,25.20
2018-02-18T16:09:36.361Z,22.77
2018-02-18T16:12:04.735Z,21.90
2018-02-18T16:14:33.130Z,29.47
2018-02-18T16:17:01.478Z,24.63
2018-02-18T16:19:29.972Z,24.83
2018-02-18T16:22:01.868Z,26.63
2018-02-18T16:24:30.189Z,23.80
2018-02-18T16:26:59.336Z,27.10
2018-02-18T16:29:29.071Z,24.50
2018-02-18T16:31:57.654Z,19.57
2018-02-18T16:39:32.514Z,29.00
2018-02-18T16:42:00.861Z,28.00
2018-02-18T16:44:29.234Z,33.50
2018-02-18T16:46:57.607Z,26.60
2018-02-18T16:49:25.992Z,28.23
2018-02-18T16:51:55.538Z,30.53
2018-02-18T16:54:23.892Z,26.63
2018-02-18T16:56:52.216Z,26.17
2018-02-18T16:59:20.594Z,34.63
2018-02-18T17:06:54.079Z,39.67
2018-02-18T17:09:22.416Z,36.27
2018-02-18T17:11:50.774Z,19.60
2018-02-18T17:14:19.369Z,30.50
2018-02-18T17:16:47.777Z,30.43
2018-02-18T17:19:17.032Z,35.33
2018-02-18T17:21:45.397Z,30.00
2018-02-18T17:24:13.873Z,43.40
2018-02-18T17:26:42.354Z,36.37
2018-02-18T17:29:11.707Z,39.50
2018-02-18T17:31:41.030Z,38.27
2018-02-18T17:34:09.392Z,45.57
2018-02-18T17:36:37.833Z,37.87
2018-02-18T17:39:06.205Z,37.53
2018-02-18T17:41:35.021Z,42.13
2018-02-18T17:44:03.369Z,42.87
2018-02-18T17:46:31.837Z,45.33
2018-02-18T17:49:00.234Z,41.67
2018-02-18T17:54:01.289Z,45.70
2018-02-18T17:56:29.653Z,50.20
2018-02-18T18:01:32.618Z,70.93
2018-02-18T18:06:41.467Z,53.60
2018-02-18T18:14:19.442Z,51.23
2018-02-18T18:16:51.352Z,68.03
2018-02-18T18:19:19.837Z,63.83
2018-02-18T18:21:48.172Z,64.10
2018-02-18T18:24:17.090Z,53.57
2018-02-18T18:26:49.155Z,53.90
2018-02-18T18:29:17.582Z,53.87
2018-02-18T18:31:46.277Z,69.50
2018-02-18T18:34:15.578Z,61.40
2018-02-18T18:36:46.741Z,54.70
2018-02-18T18:39:15.470Z,53.03
2018-02-18T18:41:43.925Z,58.00
2018-02-18T18:44:13.712Z,63.83
2018-02-18T18:46:42.198Z,80.17
2018-02-18T18:49:10.778Z,66.60
2018-02-18T18:51:39.626Z,62.63
2018-02-18T18:54:08.029Z,64.40
2018-02-18T18:56:36.437Z,67.03
2018-02-18T18:59:12.543Z,66.93
2018-02-18T19:01:42.857Z,65.53
2018-02-18T19:06:43.778Z,70.67
2018-02-18T19:09:12.879Z,65.87
2018-02-18T19:11:45.060Z,58.77
2018-02-18T19:14:13.421Z,67.73
2018-02-18T19:16:41.787Z,62.43
2018-02-18T19:19:10.270Z,62.20
2018-02-18T19:21:38.702Z,65.53
2018-02-18T19:24:07.039Z,63.77
2018-02-18T19:26:35.375Z,68.17
2018-02-18T19:29:03.806Z,80.67
2018-02-18T19:31:32.176Z,69.43
2018-02-18T19:34:00.725Z,59.20
2018-02-18T19:36:29.102Z,77.57
2018-02-18T19:38:57.645Z,73.70
2018-02-18T19:41:29.385Z,79.37
2018-02-18T19:43:57.745Z,79.10
2018-02-18T19:46:26.229Z,75.13
2018-02-18T19:48:54.585Z,65.60
2018-02-18T19:51:22.922Z,82.23
2018-02-18T19:53:51.734Z,83.40
2018-02-18T19:56:20.347Z,65.60
2018-02-18T19:58:48.809Z,70.83
2018-02-18T20:01:17.157Z,80.67
2018-02-18T20:03:45.788Z,74.67
2018-02-18T20:06:14.458Z,78.97
2018-02-18T20:08:42.876Z,76.40
2018-02-18T20:11:11.613Z,79.07
2018-02-18T20:13:40.050Z,91.23
2018-02-18T20:16:08.626Z,90.90
2018-02-18T20:18:37.634Z,88.50
2018-02-18T20:21:06.065Z,86.33
2018-02-18T20:23:36.395Z,87.30
2018-02-18T20:26:06.090Z,82.40
2018-02-18T20:28:35.433Z,89.90
2018-02-18T20:31:04.111Z,92.03
2018-02-18T20:33:32.724Z,73.13
2018-02-18T20:36:01.462Z,95.43
2018-02-18T20:38:29.889Z,90.20
2018-02-18T20:41:00.286Z,94.83
2018-02-18T20:43:29.089Z,89.57
2018-02-18T20:45:57.827Z,95.97
2018-02-18T20:48:26.262Z,88.87
2018-02-18T20:50:59.877Z,98.70
2018-02-18T20:53:28.581Z,92.03
2018-02-18T20:55:57.874Z,112.17
2018-02-18T20:58:27.457Z,108.43
2018-02-18T21:00:56.076Z,108.07
2018-02-18T21:03:24.555Z,114.60
2018-02-18T21:05:53.302Z,100.30
2018-02-18T21:08:21.744Z,118.80
2018-02-18T21:10:51.248Z,105.30
2018-02-18T21:13:21.008Z,110.63
2018-02-18T21:15:49.527Z,118.20
2018-02-18T21:18:19.135Z,110.43
2018-02-18T21:20:47.829Z,81.40
2018-02-18T21:23:16.267Z,95.03
2018-02-18T21:25:44.693Z,100.40
2018-02-18T21:28:13.159Z,92.73
2018-02-18T21:30:42.354Z,90.57
2018-02-18T21:33:14.579Z,93.43
2018-02-18T21:35:46.808Z,86.50
2018-02-18T21:38:15.573Z,107.17
2018-02-18T21:40:44.467Z,97.17
2018-02-18T21:43:13.425Z,96.60
2018-02-18T21:45:42.708Z,107.67
2018-02-18T21:48:11.527Z,103.27
2018-02-18T21:50:40.047Z,116.63
2018-02-18T21:53:12.318Z,95.33
2018-02-18T21:55:42.057Z,109.23
2018-02-18T21:58:12.263Z,105.53
2018-02-18T22:00:40.640Z,55.63
2018-02-18T22:03:10.113Z,85.90
2018-02-18T22:05:38.731Z,65.20
2018-02-18T22:08:07.820Z,89.80
2018-02-18T22:10:40.199Z,83.97
2018-02-18T22:13:10.821Z,106.73
2018-02-18T22:15:41.039Z,88.17
2018-02-18T22:18:09.773Z,103.33
2018-02-18T22:20:39.812Z,91.50
2018-02-18T22:23:08.456Z,102.30
2018-02-18T22:25:36.790Z,91.50
2018-02-18T22:28:05.149Z,108.70
2018-02-18T22:30:33.539Z,110.50
2018-02-18T22:33:01.954Z,97.57
2018-02-18T22:35:30.292Z,101.17
2018-02-18T22:37:58.641Z,95.67
2018-02-18T22:40:26.993Z,45.37
2018-02-18T22:42:55.343Z,88.43
2018-02-18T22:45:23.693Z,93.10
2018-02-18T22:47:52.056Z,92.83
2018-02-18T22:50:20.426Z,79.57
2018-02-18T22:52:49.043Z,87.00
2018-02-18T22:55:17.428Z,105.90
2018-02-18T22:57:45.747Z,81.50
2018-02-18T23:00:17.950Z,103.80
2018-02-18T23:02:46.319Z,102.83
2018-02-18T23:05:20.262Z,111.43
2018-02-18T23:07:48.622Z,91.87
2018-02-18T23:10:17.012Z,107.03
2018-02-18T23:12:45.416Z,95.77
2018-02-18T23:15:13.767Z,90.77
2018-02-18T23:17:43.056Z,89.87
2018-02-18T23:20:11.410Z,83.30
2018-02-18T23:22:39.748Z,77.03
2018-02-18T23:25:08.064Z,90.87
2018-02-18T23:27:36.446Z,88.17
2018-02-18T23:30:04.787Z,85.93
2018-02-18T23:32:33.125Z,71.77
2018-02-18T23:35:01.496Z,77.90
2018-02-18T23:37:29.836Z,82.83
2018-02-18T23:39:58.202Z,65.77
2018-02-18T23:42:26.537Z,71.60
2018-02-18T23:44:54.882Z,78.83
2018-02-18T23:47:23.281Z,54.53
2018-02-18T23:49:51.628Z,75.40
2018-02-18T23:52:20.025Z,76.33
2018-02-18T23:54:48.439Z,57.93
2018-02-18T23:57:16.811Z,70.23
2018-02-18T23:59:45.190Z,72.03
